Time;durP1;ratioP1;P1;durP2;ratioP2;P2;SDS_P1;SDS_P2;PMS_P1;PMS_P2;Temp;Humidity;BMP_temperature;BMP_pressure;BME280_temperature;BME280_humidity;BME280_pressure;Samples;Min_cycle;Max_cycle;Signal;HPM_P1;HPM_P2
2023/08/22 00:01:17;;;;;;;9.85;3.53;;;20.40;99.90;;;19.87;100.00;98152.69;5002906;28;20046;-73
2023/08/22 00:03:44;;;;;;;8.25;3.63;;;20.50;99.90;;;20.05;100.00;98154.84;5000639;28;20054;-73
2023/08/22 00:06:11;;;;;;;6.43;3.45;;;20.60;99.90;;;20.15;100.00;98147.09;5012260;28;20100;-73
2023/08/22 00:08:38;;;;;;;7.55;3.33;;;20.70;99.90;;;20.21;100.00;98143.19;4998586;28;20147;-72
2023/08/22 00:11:06;;;;;;;5.47;3.03;;;20.80;99.90;;;20.21;100.00;98140.56;5001869;28;20580;-73
2023/08/22 00:13:33;;;;;;;5.22;2.60;;;20.90;99.90;;;20.12;100.00;98134.16;5000716;28;20137;-73
2023/08/22 00:16:00;;;;;;;10.05;3.25;;;20.90;99.90;;;19.88;100.00;98128.84;5002168;28;20077;-73
2023/08/22 00:18:28;;;;;;;6.03;2.47;;;20.80;99.90;;;19.91;100.00;98133.94;5018287;28;20053;-74
2023/08/22 00:20:56;;;;;;;8.57;3.13;;;20.70;99.90;;;20.04;100.00;98134.69;5002859;28;20058;-73
2023/08/22 00:23:23;;;;;;;7.80;2.85;;;20.70;99.90;;;19.85;100.00;98122.00;5002983;28;20058;-73
2023/08/22 00:25:51;;;;;;;5.85;3.13;;;20.70;99.90;;;19.90;100.00;98121.69;5003624;28;20526;-73
2023/08/22 00:28:18;;;;;;;7.90;2.78;;;20.70;99.90;;;19.69;100.00;98123.22;5001708;28;20049;-73
2023/08/22 00:30:49;;;;;;;7.10;3.38;;;20.60;99.90;;;19.60;100.00;98129.97;5000238;28;20069;-73
2023/08/22 00:33:16;;;;;;;6.50;3.03;;;20.60;99.90;;;19.62;100.00;98126.25;5015779;28;20058;-73
2023/08/22 00:35:43;;;;;;;8.48;3.20;;;20.50;99.90;;;19.61;100.00;98121.09;5015551;28;20289;-73
2023/08/22 00:38:10;;;;;;;6.68;3.25;;;20.50;99.90;;;19.52;100.00;98127.84;4999819;28;20062;-73
2023/08/22 00:40:38;;;;;;;5.45;2.90;;;20.40;99.90;;;19.68;100.00;98126.78;5004527;28;20577;-71
2023/08/22 00:43:05;;;;;;;8.32;2.90;;;20.50;99.90;;;19.42;100.00;98122.38;5007247;28;20062;-73
2023/08/22 00:45:33;;;;;;;6.75;3.03;;;20.40;99.90;;;19.46;100.00;98122.19;4986250;28;20060;-72
2023/08/22 00:48:00;;;;;;;6.75;3.33;;;20.40;99.90;;;19.39;100.00;98125.25;5022165;28;20045;-73
2023/08/22 00:50:28;;;;;;;6.13;3.65;;;20.40;99.90;;;19.55;100.00;98126.81;5002253;28;20457;-73
2023/08/22 00:52:55;;;;;;;4.95;2.75;;;20.30;99.90;;;19.47;100.00;98121.22;5019110;28;20212;-73
2023/08/22 00:55:23;;;;;;;10.07;3.65;;;20.40;99.90;;;19.48;100.00;98120.28;5018915;28;20538;-76
2023/08/22 00:57:51;;;;;;;8.68;3.80;;;20.30;99.90;;;19.48;100.00;98118.50;5001013;28;20156;-74
2023/08/22 01:00:18;;;;;;;9.45;4.00;;;20.30;99.90;;;19.42;100.00;98117.13;4998871;28;20070;-73
2023/08/22 01:02:46;;;;;;;7.15;3.55;;;20.30;99.90;;;19.46;100.00;98114.31;5002371;28;20058;-74
2023/08/22 01:05:19;;;;;;;6.43;3.63;;;20.30;99.90;;;19.38;100.00;98117.44;4994351;28;20053;-74
2023/08/22 01:07:53;;;;;;;5.78;3.97;;;20.30;99.90;;;19.24;100.00;98118.41;5004037;28;20604;-73
2023/08/22 01:10:29;;;;;;;4.63;3.50;;;20.20;99.90;;;19.24;100.00;98118.41;5003592;28;20068;-74
2023/08/22 01:13:08;;;;;;;8.38;4.78;;;20.10;99.90;;;19.26;100.00;98121.78;5003504;28;20120;-74
2023/08/22 01:15:38;;;;;;;5.18;3.80;;;20.10;99.90;;;19.19;100.00;98121.34;5001897;28;20046;-74
2023/08/22 01:18:06;;;;;;;7.20;3.30;;;20.10;99.90;;;19.12;100.00;98125.38;5018891;28;20045;-74
2023/08/22 01:20:34;;;;;;;6.43;4.13;;;20.00;99.90;;;18.97;100.00;98124.63;5016327;28;20046;-74
2023/08/22 01:23:01;;;;;;;12.32;4.78;;;20.00;99.90;;;18.99;100.00;98125.34;5015730;28;20132;-74
2023/08/22 01:25:29;;;;;;;9.63;4.75;;;19.90;99.90;;;18.93;100.00;98122.28;5002571;28;20054;-74
2023/08/22 01:28:11;;;;;;;5.93;4.25;;;19.80;99.90;;;18.96;100.00;98130.00;5003481;28;20057;-73
2023/08/22 01:30:47;;;;;;;7.72;4.30;;;19.90;99.90;;;18.96;100.00;98122.94;5000681;28;20544;-73
2023/08/22 01:33:58;;;;;;;9.30;4.78;;;19.90;99.90;;;18.88;100.00;98116.50;5000270;28;20105;-73
2023/08/22 01:36:27;;;;;;;8.18;3.97;;;19.80;99.90;;;19.00;100.00;98111.25;4987417;28;20060;-73
2023/08/22 01:38:55;;;;;;;7.25;3.72;;;19.80;99.90;;;18.95;100.00;98100.22;4987203;28;20579;-74
2023/08/22 01:41:23;;;;;;;5.88;3.83;;;19.70;99.90;;;19.00;100.00;98103.38;5006961;28;20053;-74
2023/08/22 01:43:50;;;;;;;9.63;3.75;;;19.70;99.90;;;19.10;100.00;98103.56;5003978;28;20053;-73
2023/08/22 01:46:17;;;;;;;7.03;4.15;;;19.80;99.90;;;19.08;100.00;98102.00;5001978;28;20470;-74
2023/08/22 01:48:44;;;;;;;7.95;4.78;;;19.80;99.90;;;18.92;100.00;98105.69;5006216;28;20782;-73
2023/08/22 01:51:11;;;;;;;7.60;3.88;;;19.80;99.90;;;18.98;100.00;98097.38;5002596;28;20042;-74
2023/08/22 01:53:38;;;;;;;6.40;4.07;;;19.80;99.90;;;18.93;100.00;98088.09;5005037;28;20152;-74
2023/08/22 01:56:06;;;;;;;6.85;4.07;;;19.70;99.90;;;18.86;100.00;98094.72;5005053;28;20151;-74
2023/08/22 01:58:33;;;;;;;7.13;4.45;;;19.60;99.90;;;18.72;100.00;98091.22;5005261;28;20559;-74
2023/08/22 02:01:11;;;;;;;7.00;4.85;;;;;;;18.74;100.00;98093.75;5004530;28;20050;-74
2023/08/22 02:03:40;;;;;;;5.78;4.68;;;19.30;99.90;;;18.63;100.00;98093.63;4988119;28;20053;-71
2023/08/22 02:06:08;;;;;;;6.03;4.72;;;19.30;99.90;;;18.66;100.00;98103.97;5005842;28;20085;-74
2023/08/22 02:08:36;;;;;;;7.45;5.50;;;19.20;99.90;;;18.67;100.00;98106.47;5006512;28;20057;-74
2023/08/22 02:11:03;;;;;;;7.63;5.82;;;19.20;99.90;;;18.57;100.00;98108.03;5001240;28;20081;-74
2023/08/22 02:13:30;;;;;;;6.47;4.90;;;19.20;99.90;;;18.62;100.00;98120.88;5005803;28;20042;-74
2023/08/22 02:15:58;;;;;;;8.52;5.40;;;19.20;99.90;;;18.72;100.00;98117.50;5005164;28;20073;-74
2023/08/22 02:18:25;;;;;;;6.00;5.07;;;19.30;99.90;;;18.70;100.00;98114.16;5002943;28;20045;-73
2023/08/22 02:20:55;;;;;;;6.88;4.65;;;19.30;99.90;;;18.85;100.00;98106.22;5007418;28;20100;-75
2023/08/22 02:23:22;;;;;;;7.07;4.45;;;19.30;99.90;;;18.84;100.00;98108.00;5004963;28;20050;-74
2023/08/22 02:25:49;;;;;;;8.70;4.63;;;19.50;99.90;;;18.71;100.00;98101.84;5004540;28;20054;-74
2023/08/22 02:28:16;;;;;;;9.77;3.85;;;19.50;99.90;;;18.77;100.00;98096.19;5001614;28;20642;-74
2023/08/22 02:30:43;;;;;;;5.00;3.40;;;19.40;99.90;;;18.78;100.00;98096.09;5007664;28;20053;-72
2023/08/22 02:33:10;;;;;;;8.00;4.18;;;19.40;99.90;;;18.65;100.00;98102.25;5005764;28;20136;-73
2023/08/22 02:35:38;;;;;;;6.65;5.40;;;19.30;99.90;;;18.56;100.00;98094.03;5004398;28;20052;-74
2023/08/22 02:38:05;;;;;;;5.43;4.00;;;19.20;99.90;;;18.52;100.00;98094.34;4999774;28;20115;-73
2023/08/22 02:40:33;;;;;;;10.35;5.50;;;19.00;99.90;;;18.39;100.00;98102.22;4995778;28;20415;-74
2023/08/22 02:43:00;;;;;;;8.55;5.28;;;18.90;99.90;;;18.33;100.00;98099.97;5001289;28;20199;-74
2023/08/22 02:45:27;;;;;;;8.10;5.15;;;18.90;99.90;;;18.29;100.00;98103.75;5005280;28;20074;-74
2023/08/22 02:47:54;;;;;;;8.82;4.88;;;18.80;99.90;;;18.49;100.00;98103.28;5004280;28;20046;-75
2023/08/22 02:50:23;;;;;;;7.20;4.68;;;19.00;99.90;;;18.63;100.00;98097.09;4990422;28;20054;-74
2023/08/22 02:52:51;;;;;;;11.13;4.93;;;19.10;99.90;;;18.63;100.00;98106.78;5003921;28;20054;-74
2023/08/22 02:55:18;;;;;;;10.80;5.65;;;19.20;99.90;;;18.68;100.00;98107.28;5006321;28;20057;-74
2023/08/22 02:57:45;;;;;;;10.48;5.38;;;19.30;99.90;;;18.79;100.00;98100.44;5005364;28;20137;-74
2023/08/22 03:00:14;;;;;;;9.30;5.90;;;19.30;99.90;;;18.75;100.00;98108.59;5005228;28;20057;-74
2023/08/22 03:02:41;;;;;;;11.05;4.15;;;19.40;99.90;;;18.86;100.00;98106.13;4988780;28;20066;-74
2023/08/22 03:05:14;;;;;;;7.63;4.18;;;19.40;99.90;;;18.83;100.00;98098.41;5017448;28;20054;-74
2023/08/22 03:07:41;;;;;;;6.90;4.30;;;19.50;99.90;;;18.86;100.00;98100.00;5007055;28;20104;-74
2023/08/22 03:10:09;;;;;;;8.30;4.70;;;19.50;99.90;;;18.81;100.00;98098.50;5000622;28;20487;-74
2023/08/22 03:12:36;;;;;;;7.30;4.32;;;19.50;99.90;;;18.72;100.00;98100.88;5005426;28;20050;-74
2023/08/22 03:15:04;;;;;;;6.97;4.20;;;19.50;99.90;;;18.47;100.00;98105.16;5004481;28;20092;-74
2023/08/22 03:17:31;;;;;;;8.63;4.50;;;19.40;99.90;;;18.27;100.00;98106.50;5021097;28;20507;-74
2023/08/22 03:19:59;;;;;;;9.45;4.18;;;19.30;99.90;;;18.50;100.00;98109.41;5006070;28;20128;-73
2023/08/22 03:22:26;;;;;;;10.68;5.47;;;19.20;99.90;;;18.35;100.00;98114.69;4999816;28;20053;-74
2023/08/22 03:24:53;;;;;;;7.75;4.72;;;19.20;99.90;;;18.45;100.00;98100.94;5001627;28;20108;-74
2023/08/22 03:27:21;;;;;;;8.27;5.70;;;19.10;99.90;;;18.42;100.00;98099.38;5007286;28;20086;-74
2023/08/22 03:29:48;;;;;;;7.30;3.88;;;19.20;99.90;;;18.36;100.00;98100.63;5006303;28;20173;-75
2023/08/22 03:32:15;;;;;;;7.57;3.80;;;19.10;99.90;;;18.21;100.00;98099.00;5013869;28;20132;-74
2023/08/22 03:34:42;;;;;;;7.05;4.10;;;19.10;99.90;;;18.40;100.00;98096.00;5004213;28;20131;-73
2023/08/22 03:37:09;;;;;;;5.13;3.83;;;19.10;99.90;;;18.51;100.00;98093.50;5003672;28;20137;-74
2023/08/22 03:39:36;;;;;;;8.00;3.97;;;19.20;99.90;;;18.17;100.00;98095.72;5005545;28;20081;-74
2023/08/22 03:42:06;;;;;;;6.30;3.72;;;19.10;99.90;;;18.29;100.00;98096.72;5005979;28;20045;-72
2023/08/22 03:44:33;;;;;;;6.28;3.33;;;19.10;99.90;;;18.35;100.00;98090.22;5002707;28;20056;-73
2023/08/22 03:47:00;;;;;;;6.05;3.95;;;19.10;99.90;;;18.42;100.00;98080.13;5010613;28;20050;-74
2023/08/22 03:49:27;;;;;;;8.52;4.80;;;19.10;99.90;;;18.18;100.00;98088.69;4988002;28;20125;-74
2023/08/22 03:51:57;;;;;;;8.23;4.00;;;19.10;99.90;;;18.24;100.00;98088.28;5003054;28;20589;-74
2023/08/22 03:54:31;;;;;;;5.68;3.65;;;19.10;99.90;;;18.26;100.00;98085.56;5001669;28;20067;-74
2023/08/22 03:57:02;;;;;;;6.18;3.80;;;19.10;99.90;;;18.16;100.00;98088.78;5002081;28;20077;-74
2023/08/22 03:59:29;;;;;;;6.63;4.25;;;18.90;99.90;;;18.02;100.00;98082.72;4988848;28;20077;-74
2023/08/22 04:01:56;;;;;;;9.82;4.82;;;18.80;99.90;;;17.96;100.00;98097.13;5003575;28;20049;-74
2023/08/22 04:04:30;;;;;;;8.70;4.82;;;18.60;99.90;;;17.94;100.00;98097.22;4999327;28;20061;-74
2023/08/22 04:07:05;;;;;;;11.38;6.03;;;18.50;99.90;;;17.84;100.00;98092.66;5001472;28;20046;-74
2023/08/22 04:09:32;;;;;;;8.40;6.70;;;18.40;99.90;;;17.77;100.00;98103.53;5002251;28;20085;-74
2023/08/22 04:12:00;;;;;;;8.88;6.40;;;18.30;99.90;;;17.82;100.00;98099.78;4996766;28;20049;-73
2023/08/22 04:14:27;;;;;;;9.32;6.97;;;18.20;99.90;;;17.77;100.00;98107.94;5003201;28;20049;-74
2023/08/22 04:16:54;;;;;;;7.97;4.70;;;18.30;99.90;;;17.81;100.00;98106.81;4999386;28;20660;-72
2023/08/22 04:19:21;;;;;;;7.78;5.55;;;18.30;99.90;;;17.77;100.00;98102.69;5003004;28;20046;-74
2023/08/22 04:21:48;;;;;;;8.98;4.93;;;18.30;99.90;;;17.81;100.00;98103.31;5004183;28;20145;-74
2023/08/22 04:24:15;;;;;;;9.90;4.78;;;18.30;99.90;;;17.85;100.00;98100.44;5001221;28;20085;-74
2023/08/22 04:26:42;;;;;;;6.93;4.78;;;18.40;99.90;;;17.86;100.00;98099.50;5000140;28;20050;-74
2023/08/22 04:29:10;;;;;;;8.70;4.82;;;18.40;99.90;;;17.94;100.00;98105.09;4997854;28;20057;-73
2023/08/22 04:31:37;;;;;;;10.02;4.63;;;18.40;99.90;;;18.06;100.00;98100.00;5017301;28;20586;-74
2023/08/22 04:34:04;;;;;;;5.82;3.67;;;18.40;99.90;;;18.09;100.00;98100.66;5002269;28;20125;-74
2023/08/22 04:36:31;;;;;;;6.35;4.05;;;18.50;99.90;;;18.10;100.00;98102.31;4989982;28;20045;-74
2023/08/22 04:38:58;;;;;;;7.10;4.20;;;18.60;99.90;;;18.06;100.00;98100.00;4987285;28;20057;-74
2023/08/22 04:41:26;;;;;;;10.38;4.70;;;18.70;99.90;;;18.09;100.00;98099.81;5004758;28;20613;-74
2023/08/22 04:43:53;;;;;;;6.22;3.53;;;18.70;99.90;;;18.18;100.00;98096.59;5001042;28;20049;-74
2023/08/22 04:46:21;;;;;;;7.82;4.15;;;18.80;99.90;;;18.16;100.00;98087.97;5002437;28;20077;-74
2023/08/22 04:48:48;;;;;;;7.95;4.60;;;18.80;99.90;;;18.17;100.00;98097.50;5000338;28;20190;-75
2023/08/22 04:51:15;;;;;;;5.50;3.97;;;18.80;99.90;;;18.13;100.00;98099.50;5001390;28;20085;-74
2023/08/22 04:53:45;;;;;;;5.60;3.55;;;18.80;99.90;;;18.20;100.00;98097.31;5002386;28;20105;-74
2023/08/22 04:56:12;;;;;;;9.38;4.25;;;18.80;99.90;;;18.21;100.00;98103.41;4998050;28;20054;-73
2023/08/22 04:58:39;;;;;;;7.05;4.55;;;18.70;99.90;;;18.14;100.00;98106.44;5000741;28;20080;-74
2023/08/22 05:01:06;;;;;;;8.50;4.75;;;18.60;99.90;;;18.08;100.00;98098.09;5001256;28;20042;-74
2023/08/22 05:03:38;;;;;;;8.35;4.30;;;18.50;99.90;;;18.14;100.00;98101.19;4999753;28;20046;-74
2023/08/22 05:06:08;;;;;;;8.00;5.00;;;18.40;99.90;;;18.13;100.00;98093.38;5018537;28;20054;-74
2023/08/22 05:08:35;;;;;;;5.78;4.28;;;18.40;99.90;;;18.15;100.00;98102.03;5015274;28;20159;-73
2023/08/22 05:11:02;;;;;;;11.82;5.90;;;18.40;99.90;;;18.07;100.00;98097.28;5005463;28;20077;-74
2023/08/22 05:13:30;;;;;;;11.57;4.80;;;18.40;99.90;;;18.19;100.00;98098.25;5000452;28;20491;-73
2023/08/22 05:15:57;;;;;;;9.27;4.22;;;18.40;99.90;;;18.15;100.00;98100.25;4999705;28;20057;-74
2023/08/22 05:18:24;;;;;;;12.02;5.10;;;18.40;99.90;;;18.17;100.00;98108.03;5006872;28;20152;-74
2023/08/22 05:20:52;;;;;;;7.90;4.57;;;18.40;99.90;;;18.15;100.00;98112.53;5021702;28;20434;-74
2023/08/22 05:23:19;;;;;;;7.43;5.95;;;18.40;99.90;;;18.14;100.00;98113.47;5006402;28;20050;-74
2023/08/22 05:25:46;;;;;;;8.70;5.13;;;18.50;99.90;;;18.26;100.00;98114.47;5021470;28;20129;-74
2023/08/22 05:28:14;;;;;;;7.43;4.00;;;18.50;99.90;;;18.46;100.00;98111.38;5006985;28;20474;-74
2023/08/22 05:30:41;;;;;;;9.55;4.18;;;18.70;99.90;;;18.47;100.00;98113.03;5006537;28;20077;-73
2023/08/22 05:33:10;;;;;;;7.82;4.22;;;18.70;99.90;;;18.59;100.00;98114.03;4989108;28;20042;-75
2023/08/22 05:35:37;;;;;;;4.90;3.72;;;18.90;99.90;;;18.66;100.00;98106.59;5005311;28;20073;-75
2023/08/22 05:38:04;;;;;;;8.48;4.45;;;19.00;99.90;;;18.73;100.00;98103.44;5004616;28;20117;-75
2023/08/22 05:40:34;;;;;;;8.73;3.97;;;19.10;99.90;;;18.76;100.00;98102.38;5020181;28;20043;-74
2023/08/22 05:43:01;;;;;;;8.85;3.85;;;19.20;99.90;;;18.76;100.00;98094.50;5001998;28;20073;-75
2023/08/22 05:45:28;;;;;;;10.23;5.07;;;19.20;99.90;;;18.76;100.00;98094.50;5006329;28;20434;-74
2023/08/22 05:47:55;;;;;;;6.90;4.57;;;19.20;99.90;;;18.78;100.00;98098.72;5019967;28;20057;-74
2023/08/22 05:50:25;;;;;;;7.65;4.70;;;19.10;99.90;;;18.98;100.00;98105.25;5019991;28;20077;-75
2023/08/22 05:52:55;;;;;;;7.43;4.25;;;19.10;99.90;;;18.91;100.00;98103.16;5004755;28;20058;-73
2023/08/22 05:55:22;;;;;;;6.03;4.03;;;19.10;99.90;;;19.09;100.00;98103.66;5006722;28;20141;-74
2023/08/22 05:57:49;;;;;;;7.50;4.53;;;19.20;99.90;;;19.29;100.00;98089.13;5001739;28;20050;-75
2023/08/22 06:00:17;;;;;;;6.00;4.28;;;19.30;99.90;;;19.56;100.00;98086.34;5005738;28;20482;-74
2023/08/22 06:02:46;;;;;;;8.98;3.95;;;19.50;99.90;;;19.62;100.00;98080.66;5006659;28;20045;-75
2023/08/22 06:05:14;;;;;;;8.00;4.30;;;19.70;99.90;;;19.72;100.00;98080.88;5015850;28;20495;-74
2023/08/22 06:07:43;;;;;;;7.55;4.90;;;19.90;99.90;;;19.78;100.00;98086.53;5006309;28;20050;-74
2023/08/22 06:10:10;;;;;;;8.18;4.22;;;20.00;99.90;;;19.98;100.00;98082.47;5006154;28;20412;-74
2023/08/22 06:12:37;;;;;;;7.22;4.25;;;20.20;99.90;;;20.19;100.00;98082.69;5004640;28;20045;-74
2023/08/22 06:15:05;;;;;;;7.88;3.85;;;20.40;99.90;;;20.45;100.00;98078.09;5003176;28;20615;-74
2023/08/22 06:17:34;;;;;;;6.85;3.35;;;20.50;99.90;;;20.51;100.00;98070.69;4990934;28;20057;-74
2023/08/22 06:20:04;;;;;;;7.82;4.20;;;20.70;99.90;;;20.47;100.00;98076.19;5003194;28;20054;-74
2023/08/22 06:22:31;;;;;;;6.10;3.45;;;20.80;99.90;;;20.81;100.00;98067.53;5001115;28;20046;-74
2023/08/22 06:24:59;;;;;;;6.90;3.70;;;21.00;99.90;;;21.13;100.00;98062.41;5001152;28;20423;-73
2023/08/22 06:27:26;;;;;;;5.13;3.25;;;21.10;99.90;;;21.26;100.00;98054.38;5001093;28;20399;-74
2023/08/22 06:29:53;;;;;;;6.78;3.75;;;21.40;99.90;;;21.19;100.00;98051.38;5003022;28;20618;-74
2023/08/22 06:32:22;;;;;;;4.47;3.20;;;21.50;99.90;;;21.33;100.00;98047.66;5001017;28;20113;-74
2023/08/22 06:34:49;;;;;;;5.63;3.30;;;21.60;99.90;;;21.36;100.00;98047.41;5003761;28;20046;-74
2023/08/22 06:37:16;;;;;;;7.15;3.20;;;21.60;99.90;;;21.40;100.00;98042.72;5007123;28;20488;-74
2023/08/22 06:39:47;;;;;;;9.05;3.53;;;21.80;99.90;;;21.50;100.00;98051.63;5004652;28;20123;-74
2023/08/22 06:42:14;;;;;;;6.03;3.50;;;21.80;99.90;;;21.70;100.00;98044.75;5007523;28;20760;-74
2023/08/22 06:44:41;;;;;;;5.63;2.72;;;21.80;99.90;;;21.69;100.00;98046.56;5002098;28;20105;-75
2023/08/22 06:47:09;;;;;;;6.43;3.20;;;21.90;99.90;;;21.81;100.00;98042.06;5002382;28;20053;-74
2023/08/22 06:49:39;;;;;;;4.32;2.90;;;22.10;99.90;;;22.03;100.00;98037.66;5004172;28;20042;-74
2023/08/22 06:52:08;;;;;;;5.03;2.58;;;22.20;99.90;;;22.04;100.00;98034.06;5019903;28;20128;-74
2023/08/22 06:54:35;;;;;;;5.82;2.95;;;22.40;99.90;;;22.38;100.00;98026.03;5000351;28;20046;-74
2023/08/22 06:57:02;;;;;;;4.65;2.58;;;22.40;99.90;;;22.53;100.00;98025.56;5007023;28;20050;-74
2023/08/22 06:59:29;;;;;;;4.80;2.30;;;22.60;99.90;;;22.52;100.00;98026.53;4999355;28;20050;-73
2023/08/22 07:01:58;;;;;;;5.85;2.50;;;22.70;99.90;;;22.73;100.00;98025.66;5008061;28;20116;-74
2023/08/22 07:04:25;;;;;;;4.20;2.28;;;22.90;99.90;;;23.21;100.00;98025.06;5003100;28;20050;-74
2023/08/22 07:06:52;;;;;;;3.80;2.30;;;23.10;99.90;;;23.34;100.00;98015.09;5006952;28;20054;-74
2023/08/22 07:09:19;;;;;;;7.32;2.55;;;23.30;99.90;;;23.56;100.00;98013.19;5001377;28;20488;-74
2023/08/22 07:11:46;;;;;;;4.30;2.13;;;23.60;99.90;;;23.48;100.00;98010.38;5005103;28;20081;-73
2023/08/22 07:14:13;;;;;;;4.57;2.50;;;23.70;99.90;;;23.31;100.00;98006.56;5003947;28;20057;-74
2023/08/22 07:16:40;;;;;;;4.43;1.95;;;23.60;99.90;;;23.47;100.00;98011.34;4990504;28;20061;-74
2023/08/22 07:19:08;;;;;;;4.75;1.80;;;23.60;99.90;;;23.26;100.00;98008.78;5006856;28;20469;-74
2023/08/22 07:21:35;;;;;;;5.95;1.80;;;23.60;99.90;;;23.50;100.00;98006.63;5002133;28;20050;-74
2023/08/22 07:24:04;;;;;;;5.20;1.55;;;23.80;99.90;;;23.36;100.00;98007.84;5004861;28;20116;-74
2023/08/22 07:26:31;;;;;;;4.22;1.25;;;23.80;99.90;;;23.48;100.00;98011.22;5000235;28;20050;-73
2023/08/22 07:28:58;;;;;;;2.80;1.23;;;23.90;99.90;;;23.65;100.00;98011.53;4999798;28;20042;-73
2023/08/22 07:31:25;;;;;;;2.80;1.10;;;24.00;99.90;;;23.71;100.00;98008.34;4998230;28;20134;-74
2023/08/22 07:33:52;;;;;;;4.22;1.17;;;24.00;99.90;;;23.67;100.00;98015.72;5003178;28;20056;-74
2023/08/22 07:36:21;;;;;;;2.88;1.30;;;24.10;99.90;;;23.67;100.00;98017.53;5002718;28;20801;-74
2023/08/22 07:38:48;;;;;;;2.90;1.30;;;23.90;99.90;;;23.82;100.00;98015.38;5014728;28;20147;-73
2023/08/22 07:41:16;;;;;;;6.32;1.40;;;24.00;99.90;;;23.74;100.00;98016.00;4998491;28;20271;-73
2023/08/22 07:43:43;;;;;;;3.70;1.40;;;24.10;99.90;;;23.84;100.00;98016.06;5001117;28;20050;-74
2023/08/22 07:46:10;;;;;;;2.53;1.25;;;24.10;99.90;;;23.97;100.00;98016.59;4999178;28;20498;-74
2023/08/22 07:48:37;;;;;;;4.43;1.45;;;24.20;99.90;;;24.00;100.00;98008.41;4998458;28;20178;-73
2023/08/22 07:51:04;;;;;;;4.80;1.73;;;24.40;99.90;;;24.31;100.00;98018.84;4980460;28;20050;-73
2023/08/22 07:53:32;;;;;;;4.53;1.42;;;24.60;99.90;;;24.48;100.00;98023.47;4999654;28;20066;-72
2023/08/22 07:55:59;;;;;;;3.88;1.77;;;24.70;99.90;;;24.37;100.00;98023.59;4995519;28;20585;-74
2023/08/22 07:58:26;;;;;;;3.97;1.35;;;24.50;99.90;;;24.59;100.00;98019.81;4995222;28;20054;-74
2023/08/22 08:00:53;;;;;;;4.28;1.30;;;24.70;99.90;;;24.39;100.00;98026.94;4992500;28;20093;-74
2023/08/22 08:03:20;;;;;;;3.30;1.50;;;24.60;99.90;;;24.81;100.00;98032.78;5002041;28;20045;-74
2023/08/22 08:05:49;;;;;;;3.85;1.60;;;24.70;99.90;;;24.70;100.00;98029.41;4997267;28;20509;-73
2023/08/22 08:08:19;;;;;;;3.83;1.40;;;24.80;99.90;;;24.48;100.00;98022.63;5000899;28;20050;-73
2023/08/22 08:10:47;;;;;;;3.28;1.60;;;24.90;99.90;;;24.72;100.00;98025.63;4998251;28;20050;-72
2023/08/22 08:13:14;;;;;;;4.53;1.73;;;24.90;99.90;;;24.50;100.00;98045.41;4996371;28;20942;-74
2023/08/22 08:15:41;;;;;;;6.90;1.60;;;24.90;99.90;;;25.12;100.00;98035.16;5000589;28;20456;-74
2023/08/22 08:18:10;;;;;;;4.75;1.60;;;25.00;99.90;;;25.60;100.00;98035.94;4996552;28;20046;-74
2023/08/22 08:20:37;;;;;;;4.95;1.20;;;25.10;99.90;;;26.26;100.00;98035.63;4996903;28;20144;-74
2023/08/22 08:23:05;;;;;;;3.83;1.45;;;25.50;99.90;;;26.46;100.00;98043.44;4999193;28;20410;-72
2023/08/22 08:25:34;;;;;;;5.65;1.40;;;25.60;99.90;;;26.50;100.00;98044.78;4997619;28;20137;-75
2023/08/22 08:28:02;;;;;;;2.83;1.10;;;25.80;99.90;;;26.76;100.00;98046.69;5000276;28;20056;-74
2023/08/22 08:30:29;;;;;;;5.20;1.08;;;26.10;99.90;;;27.33;100.00;98050.53;5016906;28;20425;-75
2023/08/22 08:32:56;;;;;;;3.53;0.90;;;26.80;99.90;;;28.02;100.00;98053.09;5003016;28;20057;-75
2023/08/22 08:35:23;;;;;;;3.60;0.95;;;27.50;99.90;;;27.68;100.00;98056.63;5003572;28;20469;-74
2023/08/22 08:37:52;;;;;;;5.60;1.25;;;28.00;99.90;;;27.85;100.00;98060.22;5000348;28;20636;-75
2023/08/22 08:40:19;;;;;;;5.88;1.30;;;28.40;99.90;;;28.27;100.00;98061.97;4998559;28;20054;-76
2023/08/22 08:42:46;;;;;;;4.90;1.00;;;28.90;99.90;;;28.92;100.00;98058.44;5002192;28;20096;-75
2023/08/22 08:45:15;;;;;;;2.42;0.70;;;29.60;99.90;;;28.39;100.00;98049.09;5001820;28;20077;-73
2023/08/22 08:47:43;;;;;;;4.40;0.90;;;29.80;99.90;;;28.42;100.00;98056.81;5016345;28;20128;-72
2023/08/22 08:50:11;;;;;;;4.28;1.00;;;29.20;99.90;;;28.18;100.00;98062.13;4984975;28;20081;-72
2023/08/22 08:52:38;;;;;;;3.15;1.00;;;29.10;99.90;;;28.76;100.00;98061.13;4999704;28;20045;-73
2023/08/22 08:55:07;;;;;;;4.15;1.05;;;29.80;99.90;;;28.81;100.00;98064.16;5002653;28;20078;-72
2023/08/22 08:57:34;;;;;;;2.75;0.70;;;30.70;99.90;;;29.98;100.00;98046.50;5010792;28;20061;-73
2023/08/22 09:00:02;;;;;;;3.15;0.70;;;31.10;99.90;;;29.77;100.00;98049.81;4997023;28;20089;-72
2023/08/22 09:02:29;;;;;;;2.53;0.80;;;30.50;99.90;;;28.97;100.00;98053.44;5012256;28;20058;-74
2023/08/22 09:04:56;;;;;;;1.92;0.60;;;30.20;99.80;;;29.50;100.00;98051.09;5000980;28;20159;-74
2023/08/22 09:07:23;;;;;;;2.30;0.80;;;30.60;99.80;;;30.36;100.00;98045.78;4999008;28;20541;-72
2023/08/22 09:09:51;;;;;;;2.67;0.70;;;30.70;98.20;;;28.87;100.00;98038.56;4997932;28;20112;-74
2023/08/22 09:12:18;;;;;;;4.15;0.50;;;30.00;96.70;;;29.15;100.00;98034.53;4999418;28;20045;-74
2023/08/22 09:14:47;;;;;;;3.28;0.63;;;29.90;96.00;;;29.43;100.00;98033.25;5001202;28;20053;-72
2023/08/22 09:17:18;;;;;;;2.45;0.50;;;29.90;96.30;;;29.36;100.00;98033.94;4999158;28;20171;-73
2023/08/22 09:19:45;;;;;;;1.67;0.50;;;29.40;95.30;;;29.25;100.00;98033.50;5000305;28;20050;-73
2023/08/22 09:22:15;;;;;;;87.20;23.05;;;29.60;94.30;;;29.83;100.00;98023.38;5000667;28;20072;-73
2023/08/22 09:24:54;;;;;;;4.20;0.70;;;29.40;93.80;;;29.49;100.00;98029.88;4999620;28;20521;-73
2023/08/22 09:27:27;;;;;;;3.55;0.70;;;29.40;93.40;;;29.86;100.00;98023.84;5001090;28;20560;-71
2023/08/22 09:30:00;;;;;;;3.78;0.60;;;29.80;94.10;;;29.08;100.00;98027.34;4993621;28;20133;-71
2023/08/22 09:32:28;;;;;;;4.00;0.80;;;29.90;91.90;;;29.54;100.00;98027.53;4987744;28;20658;-72
2023/08/22 09:35:00;;;;;;;2.45;0.60;;;29.70;92.10;;;29.52;100.00;98032.22;4991227;28;20065;-71
2023/08/22 09:37:35;;;;;;;3.40;1.02;;;29.60;92.40;;;29.08;100.00;98027.34;4984087;28;20113;-70
2023/08/22 09:40:08;;;;;;;1.63;0.57;;;30.10;93.80;;;30.18;100.00;98040.72;4991330;28;20057;-72
2023/08/22 09:42:40;;;;;;;3.20;0.77;;;29.70;93.60;;;29.96;100.00;98040.50;4993417;28;20502;-70
2023/08/22 09:45:09;;;;;;;3.53;0.60;;;29.60;93.50;;;30.43;100.00;98038.69;4995644;28;20637;-71
2023/08/22 09:47:42;;;;;;;2.35;0.70;;;29.80;93.20;;;30.01;100.00;98038.13;5000417;28;20105;-71
2023/08/22 09:50:16;;;;;;;3.90;0.70;;;29.80;93.40;;;30.14;100.00;98044.75;4999469;28;20081;-71
2023/08/22 09:52:44;;;;;;;2.08;0.70;;;30.10;94.30;;;30.73;100.00;98036.09;4984705;28;20593;-72
2023/08/22 09:55:12;;;;;;;3.15;0.63;;;30.70;93.20;;;29.54;100.00;98048.94;5011656;28;20050;-71
2023/08/22 09:57:39;;;;;;;3.60;0.68;;;30.20;92.00;;;30.30;100.00;98054.53;5014104;28;20045;-71
2023/08/22 10:00:10;;;;;;;2.78;0.80;;;29.90;92.10;;;29.84;100.00;98049.13;4999882;28;20053;-71
2023/08/22 10:02:38;;;;;;;3.42;0.85;;;29.20;92.00;;;30.08;100.00;98050.81;4989513;28;20077;-72
2023/08/22 10:05:06;;;;;;;2.50;0.85;;;29.10;93.50;;;30.30;100.00;98041.16;5021518;28;20053;-69
2023/08/22 10:07:34;;;;;;;5.22;1.30;;;29.10;92.90;;;29.61;100.00;98047.22;5004740;28;20046;-72
2023/08/22 10:10:01;;;;;;;4.07;1.45;;;29.60;93.00;;;29.87;100.00;98040.75;5001651;28;20045;-70
2023/08/22 10:12:29;;;;;;;3.45;1.17;;;29.90;93.20;;;29.30;100.00;98045.31;5000304;28;20560;-71
2023/08/22 10:14:58;;;;;;;2.90;0.80;;;30.00;93.00;;;29.60;100.00;98046.38;5002538;28;20057;-72
2023/08/22 10:17:26;;;;;;;1.70;0.68;;;30.10;93.30;;;30.06;100.00;98048.31;5003064;28;20550;-72